createdAt,value
2022-08-26T00:00:36.747Z,18.97
2022-08-26T00:05:39.893Z,18.91
2022-08-26T00:10:43.065Z,18.83
2022-08-26T00:15:47.109Z,18.92
2022-08-26T00:20:50.117Z,18.78
2022-08-26T00:25:52.977Z,18.78
2022-08-26T00:30:56.956Z,18.86
2022-08-26T00:35:59.711Z,18.85
2022-08-26T00:41:03.416Z,18.85
2022-08-26T00:46:06.552Z,18.75
2022-08-26T00:51:09.401Z,18.65
2022-08-26T00:56:13.296Z,18.59
2022-08-26T01:01:16.210Z,18.50
2022-08-26T01:06:19.156Z,18.45
2022-08-26T01:11:22.001Z,18.37
2022-08-26T01:16:25.969Z,18.33
2022-08-26T01:21:28.718Z,18.36
2022-08-26T01:26:32.286Z,18.32
2022-08-26T01:31:35.625Z,18.25
2022-08-26T01:36:39.403Z,18.23
2022-08-26T01:41:42.937Z,18.32
2022-08-26T01:46:48.883Z,18.37
2022-08-26T01:51:53.462Z,18.39
2022-08-26T01:56:56.765Z,18.52
2022-08-26T02:02:00.072Z,18.58
2022-08-26T02:07:03.036Z,18.52
2022-08-26T02:12:06.360Z,18.53
2022-08-26T02:17:13.214Z,18.47
2022-08-26T02:22:16.461Z,18.26
2022-08-26T02:27:19.547Z,18.15
2022-08-26T02:32:22.336Z,18.14
2022-08-26T02:37:26.240Z,18.04
2022-08-26T02:42:29.085Z,18.22
2022-08-26T02:47:32.442Z,18.29
2022-08-26T02:52:35.686Z,18.35
2022-08-26T02:57:39.753Z,18.29
2022-08-26T03:02:42.761Z,18.18
2022-08-26T03:07:45.555Z,18.07
2022-08-26T03:12:49.309Z,18.13
2022-08-26T03:17:55.120Z,18.09
2022-08-26T03:23:00.162Z,18.02
2022-08-26T03:28:03.127Z,17.92
2022-08-26T03:33:06.005Z,17.94
2022-08-26T03:38:09.496Z,17.92
2022-08-26T03:43:16.197Z,17.96
2022-08-26T03:48:19.177Z,17.99
2022-08-26T03:53:22.095Z,17.99
2022-08-26T03:58:25.562Z,17.97
2022-08-26T04:03:47.725Z,17.98
2022-08-26T04:08:51.033Z,17.96
2022-08-26T04:13:54.288Z,17.97
2022-08-26T04:18:57.654Z,18.00
2022-08-26T04:24:03.431Z,18.00
2022-08-26T04:29:07.012Z,18.00
2022-08-26T04:34:11.136Z,18.09
2022-08-26T04:39:16.864Z,18.15
2022-08-26T04:44:22.450Z,18.32
2022-08-26T04:49:27.714Z,18.51
2022-08-26T04:54:31.600Z,18.67
2022-08-26T04:59:39.129Z,19.05
2022-08-26T05:04:43.958Z,18.93
2022-08-26T05:09:49.061Z,18.87
2022-08-26T05:14:53.513Z,18.92
2022-08-26T05:19:57.216Z,18.95
2022-08-26T05:25:01.701Z,18.96
2022-08-26T05:30:06.521Z,19.13
2022-08-26T05:35:09.351Z,19.23
2022-08-26T05:40:12.446Z,19.29
2022-08-26T05:45:15.638Z,19.34
2022-08-26T05:50:32.001Z,19.34
2022-08-26T05:55:35.355Z,19.69
2022-08-26T06:00:38.288Z,19.84
2022-08-26T06:05:41.150Z,20.09
2022-08-26T06:10:44.556Z,19.94
2022-08-26T06:15:49.303Z,20.27
2022-08-26T06:20:57.614Z,20.45
2022-08-26T06:26:01.279Z,20.33
2022-08-26T06:31:06.217Z,20.62
2022-08-26T06:36:09.132Z,20.57
2022-08-26T06:41:22.730Z,20.61
2022-08-26T06:46:26.047Z,20.30
2022-08-26T06:51:28.940Z,20.86
2022-08-26T06:56:32.637Z,20.61
2022-08-26T07:01:35.940Z,21.01
2022-08-26T07:06:40.005Z,20.79
2022-08-26T07:11:42.771Z,21.45
2022-08-26T07:16:47.973Z,21.93
2022-08-26T07:21:51.001Z,22.18
2022-08-26T07:26:54.845Z,22.62
2022-08-26T07:31:57.875Z,22.31
2022-08-26T07:37:00.763Z,22.70
2022-08-26T07:42:07.825Z,22.93
2022-08-26T07:47:24.679Z,23.04
2022-08-26T07:52:29.299Z,23.59
2022-08-26T07:57:32.348Z,24.52
2022-08-26T08:02:35.531Z,24.37
2022-08-26T08:07:44.909Z,24.36
2022-08-26T08:12:48.841Z,24.58
2022-08-26T08:17:54.771Z,24.69
2022-08-26T08:23:00.490Z,24.53
2022-08-26T08:28:03.482Z,24.44
2022-08-26T08:33:06.963Z,24.97
2022-08-26T08:38:10.584Z,24.26
2022-08-26T08:43:13.917Z,24.10
2022-08-26T08:48:17.054Z,24.89
2022-08-26T08:53:24.813Z,25.60
2022-08-26T08:58:28.342Z,25.43
2022-08-26T09:03:33.380Z,26.08
2022-08-26T09:08:37.258Z,26.55
2022-08-26T09:13:40.225Z,25.71
2022-08-26T09:18:46.130Z,25.48
2022-08-26T09:23:50.219Z,25.14
2022-08-26T09:28:56.634Z,23.73
2022-08-26T09:34:00.077Z,23.41
2022-08-26T09:39:15.127Z,24.10
2022-08-26T09:44:18.115Z,24.02
2022-08-26T09:49:21.959Z,24.43
2022-08-26T09:54:25.433Z,24.28
2022-08-26T09:59:33.776Z,24.20
2022-08-26T10:04:38.202Z,24.18
2022-08-26T10:09:42.306Z,24.18
2022-08-26T10:19:56.519Z,24.86
2022-08-26T10:25:00.799Z,24.80
2022-08-26T10:30:05.815Z,24.64
2022-08-26T10:35:09.858Z,24.59
2022-08-26T10:40:12.901Z,24.47
2022-08-26T10:45:15.684Z,24.73
2022-08-26T10:50:18.948Z,24.43
2022-08-26T10:55:22.164Z,24.48
2022-08-26T11:00:44.264Z,24.56
2022-08-26T11:05:47.523Z,24.37
2022-08-26T11:10:50.608Z,24.41
2022-08-26T11:15:54.671Z,24.56
2022-08-26T11:20:58.493Z,24.64
2022-08-26T11:26:01.517Z,25.08
2022-08-26T11:31:04.757Z,24.80
2022-08-26T11:36:12.217Z,25.01
2022-08-26T11:41:16.124Z,25.19
2022-08-26T11:46:20.725Z,25.45
2022-08-26T11:51:23.476Z,25.47
2022-08-26T11:56:26.329Z,25.85
2022-08-26T12:01:31.603Z,26.27
2022-08-26T12:06:37.645Z,26.42
2022-08-26T12:11:48.253Z,27.11
2022-08-26T12:16:54.160Z,27.62
2022-08-26T12:21:57.143Z,27.79
2022-08-26T12:26:59.907Z,28.25
2022-08-26T12:32:03.907Z,28.34
2022-08-26T12:37:07.746Z,27.43
2022-08-26T12:42:11.624Z,27.56
2022-08-26T12:47:14.434Z,28.12
2022-08-26T12:52:29.977Z,28.10
2022-08-26T12:57:36.778Z,28.84
2022-08-26T13:02:40.074Z,29.18
2022-08-26T13:07:43.066Z,29.48
2022-08-26T13:12:46.904Z,29.17
2022-08-26T13:17:49.704Z,29.48
2022-08-26T13:22:58.813Z,28.71
2022-08-26T13:28:02.096Z,28.28
2022-08-26T13:33:05.587Z,28.67
2022-08-26T13:38:22.357Z,28.65
2022-08-26T13:43:37.261Z,28.29
2022-08-26T13:48:41.138Z,29.01
2022-08-26T13:53:47.898Z,28.76
2022-08-26T13:58:50.982Z,28.50
2022-08-26T14:03:54.003Z,27.85
2022-08-26T14:08:56.764Z,28.11
2022-08-26T14:13:59.638Z,27.76
2022-08-26T14:19:02.511Z,27.31
2022-08-26T14:24:09.913Z,27.30
2022-08-26T14:29:14.724Z,27.67
2022-08-26T14:34:19.590Z,27.61
2022-08-26T14:39:22.356Z,27.70
2022-08-26T14:44:25.515Z,28.02
2022-08-26T14:49:28.316Z,27.26
2022-08-26T14:54:31.209Z,27.37
2022-08-26T14:59:34.195Z,27.22
2022-08-26T15:04:36.985Z,27.31
2022-08-26T15:09:39.834Z,27.20
2022-08-26T15:14:42.794Z,27.33
2022-08-26T15:19:45.908Z,27.29
2022-08-26T15:24:53.597Z,27.45
2022-08-26T15:29:56.638Z,27.28
2022-08-26T15:34:59.425Z,27.22
2022-08-26T15:40:05.643Z,27.24
2022-08-26T15:45:08.611Z,26.87
2022-08-26T15:50:11.361Z,26.60
2022-08-26T15:55:14.424Z,27.08
2022-08-26T16:00:17.636Z,27.22
2022-08-26T16:05:20.622Z,27.19
2022-08-26T16:10:23.416Z,27.00
2022-08-26T16:15:26.321Z,26.76
2022-08-26T16:20:29.071Z,26.65
2022-08-26T16:25:31.925Z,26.42
2022-08-26T16:30:35.787Z,26.00
2022-08-26T16:35:38.625Z,25.73
2022-08-26T16:40:41.393Z,25.65
2022-08-26T16:45:44.493Z,25.62
2022-08-26T16:50:47.683Z,25.42
2022-08-26T16:55:50.758Z,25.38
2022-08-26T17:00:54.558Z,25.19
2022-08-26T17:05:59.422Z,25.11
2022-08-26T17:11:02.347Z,25.00
2022-08-26T17:16:08.744Z,24.88
2022-08-26T17:21:11.833Z,24.70
2022-08-26T17:26:15.322Z,24.54
2022-08-26T17:31:18.508Z,24.37
2022-08-26T17:36:21.369Z,24.19
2022-08-26T17:41:25.167Z,24.06
2022-08-26T17:46:28.059Z,23.91
2022-08-26T17:51:30.952Z,23.86
2022-08-26T17:56:33.770Z,23.76
2022-08-26T18:01:36.513Z,23.69
2022-08-26T18:06:39.318Z,23.54
2022-08-26T18:11:42.042Z,23.43
2022-08-26T18:16:44.880Z,23.31
2022-08-26T18:21:47.725Z,23.20
2022-08-26T18:26:51.098Z,23.22
2022-08-26T18:31:53.820Z,23.16
2022-08-26T18:36:56.985Z,23.07
2022-08-26T18:41:59.702Z,22.94
2022-08-26T18:47:02.438Z,22.94
2022-08-26T18:52:05.417Z,22.89
2022-08-26T18:57:08.258Z,22.26
2022-08-26T19:02:11.148Z,21.69
2022-08-26T19:07:14.593Z,21.33
2022-08-26T19:12:17.391Z,20.44
2022-08-26T19:17:22.533Z,18.50
2022-08-26T19:22:25.684Z,16.90
2022-08-26T19:27:29.782Z,16.28
2022-08-26T19:32:32.781Z,16.50
2022-08-26T19:37:38.371Z,16.33
2022-08-26T19:42:41.335Z,16.55
2022-08-26T19:47:44.073Z,16.47
2022-08-26T19:52:51.258Z,16.48
2022-08-26T19:57:55.460Z,16.47
2022-08-26T20:02:58.343Z,16.46
2022-08-26T20:08:03.592Z,16.39
2022-08-26T20:13:07.330Z,16.48
2022-08-26T20:18:25.928Z,17.00
2022-08-26T20:23:29.606Z,17.08
2022-08-26T20:28:32.877Z,17.09
2022-08-26T20:33:45.974Z,16.96
2022-08-26T20:38:50.375Z,16.86
2022-08-26T20:43:53.129Z,16.80
2022-08-26T20:48:57.715Z,16.79
2022-08-26T20:54:02.513Z,16.92
2022-08-26T20:59:05.489Z,17.20
2022-08-26T21:04:08.635Z,16.88
2022-08-26T21:09:11.827Z,16.75
2022-08-26T21:14:16.542Z,16.49
2022-08-26T21:19:20.360Z,16.46
2022-08-26T21:24:23.134Z,16.55
2022-08-26T21:29:25.963Z,16.45
2022-08-26T21:34:29.168Z,16.42
2022-08-26T21:39:32.024Z,16.37
2022-08-26T21:44:34.822Z,16.40
2022-08-26T21:49:37.553Z,16.46
2022-08-26T21:54:40.594Z,16.36
2022-08-26T21:59:52.446Z,16.59
2022-08-26T22:04:56.448Z,17.22
2022-08-26T22:09:59.325Z,17.65
2022-08-26T22:15:02.082Z,17.92
2022-08-26T22:20:05.080Z,17.59
2022-08-26T22:25:09.456Z,17.49
2022-08-26T22:30:15.589Z,17.50
2022-08-26T22:35:28.699Z,17.55
2022-08-26T22:40:33.246Z,17.47
2022-08-26T22:45:36.162Z,17.44
2022-08-26T22:50:39.114Z,17.44
2022-08-26T22:55:43.512Z,17.27
2022-08-26T23:00:46.594Z,17.21
2022-08-26T23:05:55.639Z,17.10
2022-08-26T23:10:58.715Z,17.21
2022-08-26T23:16:01.437Z,17.29
2022-08-26T23:21:04.774Z,17.32
2022-08-26T23:26:07.753Z,17.34
2022-08-26T23:31:10.557Z,17.34
2022-08-26T23:36:17.863Z,17.33
2022-08-26T23:56:05.778Z,17.34
